createdAt,value
2018-06-11T00:01:36.684Z,15.10
2018-06-11T00:04:11.221Z,15.10
2018-06-11T00:06:45.542Z,15.10
2018-06-11T00:09:19.851Z,15.00
2018-06-11T00:11:54.100Z,15.00
2018-06-11T00:14:28.456Z,15.00
2018-06-11T00:19:37.097Z,14.90
2018-06-11T00:22:11.351Z,14.80
2018-06-11T00:24:45.656Z,14.80
2018-06-11T00:27:19.883Z,14.80
2018-06-11T00:29:54.190Z,14.80
2018-06-11T00:32:28.660Z,14.80
2018-06-11T00:35:03.044Z,14.90
2018-06-11T00:37:37.284Z,14.80
2018-06-11T00:40:11.577Z,14.80
2018-06-11T00:42:45.879Z,14.80
2018-06-11T00:45:20.184Z,14.80
2018-06-11T00:47:54.688Z,14.80
2018-06-11T00:50:28.844Z,14.80
2018-06-11T00:53:03.073Z,14.70
2018-06-11T00:55:48.946Z,14.70
2018-06-11T00:58:23.266Z,14.70
2018-06-11T01:00:57.609Z,14.60
2018-06-11T01:06:05.940Z,14.60
2018-06-11T01:08:40.266Z,14.60
2018-06-11T01:11:14.627Z,14.60
2018-06-11T01:13:48.986Z,14.60
2018-06-11T01:16:23.322Z,14.50
2018-06-11T01:18:57.644Z,14.50
2018-06-11T01:24:06.129Z,14.50
2018-06-11T01:26:40.376Z,14.50
2018-06-11T01:29:14.649Z,14.50
2018-06-11T01:31:48.926Z,14.50
2018-06-11T01:34:23.132Z,14.50
2018-06-11T01:36:57.531Z,14.60
2018-06-11T01:39:32.004Z,14.60
2018-06-11T01:42:06.352Z,14.70
2018-06-11T01:44:40.567Z,14.70
2018-06-11T01:47:14.732Z,14.70
2018-06-11T01:49:49.236Z,14.70
2018-06-11T01:52:23.480Z,14.70
2018-06-11T01:54:57.693Z,14.70
2018-06-11T01:57:32.104Z,14.60
2018-06-11T02:00:06.284Z,14.60
2018-06-11T02:02:40.484Z,14.60
2018-06-11T02:05:14.840Z,14.60
2018-06-11T02:07:49.021Z,14.70
2018-06-11T02:10:23.386Z,14.70
2018-06-11T02:12:57.770Z,14.70
2018-06-11T02:15:32.048Z,14.80
2018-06-11T02:18:06.294Z,14.80
2018-06-11T02:20:41.128Z,14.80
2018-06-11T02:29:24.140Z,14.90
2018-06-11T02:31:58.361Z,14.90
2018-06-11T02:34:32.880Z,15.00
2018-06-11T02:37:07.208Z,15.00
2018-06-11T02:39:41.603Z,15.00
2018-06-11T02:42:15.924Z,15.10
2018-06-11T02:44:50.252Z,15.00
2018-06-11T02:47:24.661Z,15.00
2018-06-11T02:49:59.717Z,15.00
2018-06-11T02:52:34.112Z,14.90
2018-06-11T02:55:09.160Z,14.90
2018-06-11T02:57:43.681Z,14.80
2018-06-11T03:00:19.124Z,14.90
2018-06-11T03:02:53.531Z,14.90
2018-06-11T03:05:29.196Z,15.00
2018-06-11T03:08:03.463Z,15.00
2018-06-11T03:13:12.304Z,14.90
2018-06-11T03:15:49.017Z,14.90
2018-06-11T03:18:25.624Z,14.90
2018-06-11T03:20:59.990Z,15.00
2018-06-11T03:23:34.243Z,15.10
2018-06-11T03:28:42.656Z,15.00
2018-06-11T03:31:16.989Z,15.00
2018-06-11T03:33:51.327Z,15.10
2018-06-11T03:36:26.396Z,15.10
2018-06-11T03:39:00.612Z,15.00
2018-06-11T03:41:35.125Z,15.00
2018-06-11T03:44:09.410Z,15.00
2018-06-11T03:49:19.904Z,14.90
2018-06-11T03:51:54.284Z,15.00
2018-06-11T03:54:28.629Z,15.00
2018-06-11T03:59:37.179Z,15.00
2018-06-11T04:02:12.490Z,14.90
2018-06-11T04:04:47.008Z,14.90
2018-06-11T04:07:21.327Z,14.80
2018-06-11T04:09:56.604Z,14.70
2018-06-11T04:12:31.293Z,14.70
2018-06-11T04:15:05.840Z,14.70
2018-06-11T04:17:40.581Z,14.80
2018-06-11T04:20:14.902Z,14.90
2018-06-11T04:22:49.416Z,15.00
2018-06-11T04:25:24.033Z,15.00
2018-06-11T04:27:58.604Z,15.10
2018-06-11T04:30:33.676Z,15.20
2018-06-11T04:33:07.908Z,15.20
2018-06-11T04:35:42.349Z,15.10
2018-06-11T04:38:17.100Z,15.10
2018-06-11T04:40:51.838Z,15.00
2018-06-11T04:43:26.241Z,15.10
2018-06-11T04:46:00.545Z,15.10
2018-06-11T04:48:36.613Z,15.10
2018-06-11T04:51:10.932Z,15.20
2018-06-11T04:53:45.128Z,15.00
2018-06-11T04:56:19.570Z,15.00
2018-06-11T04:58:53.772Z,15.10
2018-06-11T05:01:28.206Z,15.10
2018-06-11T05:04:02.648Z,15.10
2018-06-11T05:06:37.037Z,15.10
2018-06-11T05:09:11.338Z,15.20
2018-06-11T05:11:46.468Z,15.20
2018-06-11T05:14:20.924Z,15.20
2018-06-11T05:16:55.393Z,15.30
2018-06-11T05:19:29.866Z,15.30
2018-06-11T05:22:04.309Z,15.30
2018-06-11T05:24:38.594Z,15.40
2018-06-11T05:27:13.758Z,15.40
2018-06-11T05:29:49.604Z,15.30
2018-06-11T05:32:25.712Z,15.30
2018-06-11T05:34:59.956Z,15.30
2018-06-11T05:37:36.038Z,15.30
2018-06-11T05:40:10.851Z,15.20
2018-06-11T05:42:46.111Z,15.20
2018-06-11T05:45:20.428Z,15.20
2018-06-11T05:47:54.870Z,15.30
2018-06-11T05:50:29.116Z,15.40
2018-06-11T05:53:04.135Z,15.50
2018-06-11T05:55:38.385Z,15.40
2018-06-11T05:58:12.595Z,15.40
2018-06-11T06:00:46.923Z,15.40
2018-06-11T06:03:21.349Z,15.50
2018-06-11T06:05:55.689Z,15.50
2018-06-11T06:08:30.068Z,15.50
2018-06-11T06:11:04.492Z,15.60
2018-06-11T06:13:38.672Z,15.60
2018-06-11T06:16:13.182Z,15.70
2018-06-11T06:18:47.496Z,15.80
2018-06-11T06:21:22.206Z,15.90
2018-06-11T06:23:56.502Z,15.80
2018-06-11T06:26:30.876Z,15.60
2018-06-11T06:29:05.234Z,15.60
2018-06-11T06:31:39.722Z,15.70
2018-06-11T06:34:14.269Z,15.70
2018-06-11T06:39:22.516Z,15.90
2018-06-11T06:41:56.760Z,16.10
2018-06-11T06:44:31.088Z,16.10
2018-06-11T06:47:05.774Z,16.20
2018-06-11T06:49:40.209Z,16.00
2018-06-11T06:52:14.556Z,16.00
2018-06-11T06:54:48.907Z,16.10
2018-06-11T06:57:23.809Z,16.20
2018-06-11T06:59:58.112Z,16.20
2018-06-11T07:02:32.416Z,16.30
2018-06-11T07:05:06.747Z,16.10
2018-06-11T07:10:15.097Z,16.10
2018-06-11T07:12:49.299Z,16.20
2018-06-11T07:15:23.641Z,16.20
2018-06-11T07:17:57.902Z,16.40
2018-06-11T07:20:32.156Z,16.50
2018-06-11T07:23:06.572Z,16.60
2018-06-11T07:25:40.825Z,16.60
2018-06-11T07:28:15.004Z,16.60
2018-06-11T07:30:49.244Z,16.70
2018-06-11T07:33:23.765Z,16.90
2018-06-11T07:35:58.052Z,17.00
2018-06-11T07:38:32.408Z,17.20
2018-06-11T07:41:06.689Z,17.50
2018-06-11T07:43:41.038Z,17.90
2018-06-11T07:46:15.261Z,17.90
2018-06-11T07:48:49.688Z,17.90
2018-06-11T07:53:58.013Z,17.90
2018-06-11T07:56:32.320Z,18.20
2018-06-11T07:59:06.545Z,18.60
2018-06-11T08:01:41.747Z,18.60
2018-06-11T08:04:16.675Z,18.70
2018-06-11T08:06:51.045Z,18.80
2018-06-11T08:09:26.053Z,18.40
2018-06-11T08:12:00.337Z,17.90
2018-06-11T08:14:34.704Z,18.00
2018-06-11T08:17:09.128Z,18.40
2018-06-11T08:19:43.522Z,18.70
2018-06-11T08:22:17.869Z,19.10
2018-06-11T08:24:52.258Z,19.30
2018-06-11T08:27:26.498Z,19.30
2018-06-11T08:30:00.725Z,19.60
2018-06-11T08:32:34.996Z,19.30
2018-06-11T08:35:09.100Z,19.50
2018-06-11T08:37:43.451Z,19.90
2018-06-11T08:40:17.761Z,19.60
2018-06-11T08:42:52.081Z,19.50
2018-06-11T08:45:26.484Z,19.80
2018-06-11T08:50:35.020Z,20.20
2018-06-11T08:53:09.381Z,19.70
2018-06-11T08:55:43.730Z,19.70
2018-06-11T08:58:17.916Z,19.70
2018-06-11T09:00:52.215Z,19.50
2018-06-11T09:03:26.548Z,19.10
2018-06-11T09:06:00.831Z,18.70
2018-06-11T09:08:35.102Z,18.50
2018-06-11T09:11:09.481Z,18.50
2018-06-11T09:13:43.720Z,18.80
2018-06-11T09:16:18.040Z,19.00
2018-06-11T09:18:52.439Z,19.20
2018-06-11T09:21:26.877Z,19.00
2018-06-11T09:24:01.080Z,18.90
2018-06-11T09:29:10.063Z,19.40
2018-06-11T09:31:44.225Z,19.50
2018-06-11T09:34:19.452Z,19.50
2018-06-11T09:36:54.004Z,19.70
2018-06-11T09:39:28.385Z,19.50
2018-06-11T09:42:09.214Z,19.80
2018-06-11T09:44:43.380Z,19.70
2018-06-11T09:47:17.657Z,19.60
2018-06-11T09:49:51.944Z,19.50
2018-06-11T09:52:26.279Z,19.50
2018-06-11T09:55:00.572Z,19.10
2018-06-11T09:57:34.865Z,19.20
2018-06-11T10:00:13.386Z,19.20
2018-06-11T10:02:47.650Z,19.10
2018-06-11T10:07:56.101Z,19.70
2018-06-11T10:10:30.580Z,19.80
2018-06-11T10:13:05.140Z,19.70
2018-06-11T10:15:39.353Z,19.70
2018-06-11T10:18:13.924Z,19.80
2018-06-11T10:20:48.232Z,19.90
2018-06-11T10:23:22.744Z,20.10
2018-06-11T10:25:56.854Z,20.30
2018-06-11T10:28:31.163Z,20.20
2018-06-11T10:31:05.569Z,20.00
2018-06-11T10:33:39.793Z,20.00
2018-06-11T10:36:14.134Z,20.00
2018-06-11T10:38:48.462Z,20.20
2018-06-11T10:41:22.754Z,20.10
2018-06-11T10:43:56.945Z,20.40
2018-06-11T10:46:31.372Z,20.50
2018-06-11T10:49:05.915Z,20.50
2018-06-11T10:51:40.182Z,20.60
2018-06-11T10:54:14.318Z,20.60
2018-06-11T10:56:48.728Z,20.80
2018-06-11T10:59:23.052Z,20.80
2018-06-11T11:01:57.276Z,21.10
2018-06-11T11:04:31.542Z,21.40
2018-06-11T11:09:39.941Z,22.10
2018-06-11T11:12:14.263Z,22.10
2018-06-11T11:14:48.613Z,22.10
2018-06-11T11:17:23.945Z,21.90
2018-06-11T11:19:58.427Z,21.90
2018-06-11T11:22:32.656Z,22.00
2018-06-11T11:25:07.231Z,21.70
2018-06-11T11:27:41.469Z,21.60
2018-06-11T11:30:15.954Z,21.70
2018-06-11T11:32:50.387Z,21.90
2018-06-11T11:35:24.654Z,22.10
2018-06-11T11:37:59.041Z,21.90
2018-06-11T11:40:33.408Z,22.50
2018-06-11T11:43:07.728Z,22.90
2018-06-11T11:45:42.021Z,22.80
2018-06-11T11:48:16.333Z,22.80
2018-06-11T11:50:50.672Z,22.80
2018-06-11T11:53:24.911Z,23.10
2018-06-11T11:55:59.102Z,23.50
2018-06-11T11:58:33.413Z,23.30
2018-06-11T12:01:07.752Z,23.60
2018-06-11T12:03:41.999Z,24.00
2018-06-11T12:06:16.269Z,24.30
2018-06-11T12:08:50.571Z,24.90
2018-06-11T12:11:24.899Z,25.00
2018-06-11T12:13:59.223Z,25.60
2018-06-11T12:16:33.557Z,25.90
2018-06-11T12:19:07.892Z,25.90
2018-06-11T12:21:42.178Z,25.90
2018-06-11T12:24:16.496Z,26.60
2018-06-11T12:26:50.687Z,27.40
2018-06-11T12:29:24.991Z,28.30
2018-06-11T12:31:59.761Z,28.00
2018-06-11T12:37:19.963Z,27.20
2018-06-11T12:39:54.444Z,26.90
2018-06-11T12:42:28.610Z,27.80
2018-06-11T12:45:02.959Z,28.30
2018-06-11T12:47:37.293Z,28.80
2018-06-11T12:50:11.499Z,29.30
2018-06-11T12:52:45.779Z,29.10
2018-06-11T12:55:20.125Z,29.20
2018-06-11T12:57:54.372Z,29.70
2018-06-11T13:00:28.769Z,30.70
2018-06-11T13:03:03.004Z,31.20
2018-06-11T13:05:37.349Z,30.70
2018-06-11T13:08:11.447Z,31.50
2018-06-11T13:10:45.738Z,32.00
2018-06-11T13:13:19.813Z,30.50
2018-06-11T13:18:27.916Z,31.30
2018-06-11T13:21:02.193Z,31.30
2018-06-11T13:23:37.398Z,31.60
2018-06-11T13:26:13.921Z,31.50
2018-06-11T13:28:48.203Z,32.00
2018-06-11T13:31:22.565Z,32.60
2018-06-11T13:33:56.893Z,32.70
2018-06-11T13:36:31.489Z,32.80
2018-06-11T13:39:07.856Z,33.40
2018-06-11T13:41:42.188Z,33.70
2018-06-11T13:44:16.396Z,33.90
2018-06-11T13:46:50.676Z,33.60
2018-06-11T13:49:25.028Z,34.50
2018-06-11T13:51:59.237Z,35.40
2018-06-11T13:54:33.581Z,35.10
2018-06-11T13:57:07.885Z,34.00
2018-06-11T13:59:42.132Z,34.90
2018-06-11T14:02:16.283Z,36.10
2018-06-11T14:07:24.489Z,33.50
2018-06-11T14:09:58.754Z,34.30
2018-06-11T14:12:32.962Z,35.60
2018-06-11T14:15:07.299Z,37.10
2018-06-11T14:17:41.530Z,36.30
2018-06-11T14:20:15.829Z,35.80
2018-06-11T14:22:50.157Z,36.00
2018-06-11T14:25:24.530Z,36.00
2018-06-11T14:27:58.777Z,35.70
2018-06-11T14:30:33.013Z,36.20
2018-06-11T14:33:07.383Z,36.90
2018-06-11T14:35:41.536Z,38.00
2018-06-11T14:38:15.846Z,37.80
2018-06-11T14:40:50.289Z,36.10
2018-06-11T14:43:24.605Z,33.90
2018-06-11T14:45:58.850Z,33.80
2018-06-11T14:48:33.250Z,35.00
2018-06-11T14:51:07.679Z,36.40
2018-06-11T14:53:41.864Z,37.40
2018-06-11T14:56:16.215Z,37.20
2018-06-11T14:58:50.424Z,37.40
2018-06-11T15:01:24.940Z,37.00
2018-06-11T15:03:59.296Z,37.80
2018-06-11T15:09:07.837Z,37.10
2018-06-11T15:11:42.151Z,38.90
2018-06-11T15:14:16.300Z,38.10
2018-06-11T15:16:50.525Z,38.80
2018-06-11T15:19:24.652Z,39.40
2018-06-11T15:21:58.761Z,40.50
2018-06-11T15:24:32.996Z,41.10
2018-06-11T15:27:07.337Z,41.10
2018-06-11T15:29:41.643Z,40.20
2018-06-11T15:32:16.076Z,40.90
2018-06-11T15:34:51.318Z,37.60
2018-06-11T15:37:25.600Z,36.50
2018-06-11T15:39:59.852Z,37.20
2018-06-11T15:42:34.031Z,38.00
2018-06-11T15:45:08.322Z,38.40
2018-06-11T15:47:43.626Z,36.30
2018-06-11T15:50:17.900Z,35.30
2018-06-11T15:52:52.232Z,34.70
2018-06-11T15:55:26.517Z,34.50
2018-06-11T15:58:00.781Z,35.70
2018-06-11T16:00:35.113Z,34.90
2018-06-11T16:03:09.497Z,33.20
2018-06-11T16:05:43.916Z,31.30
2018-06-11T16:08:18.428Z,29.90
2018-06-11T16:10:52.658Z,29.60
2018-06-11T16:13:27.062Z,29.10
2018-06-11T16:16:01.181Z,28.30
2018-06-11T16:18:35.909Z,28.20
2018-06-11T16:21:10.151Z,28.70
2018-06-11T16:23:44.455Z,29.20
2018-06-11T16:26:18.628Z,28.60
2018-06-11T16:28:53.225Z,27.60
2018-06-11T16:31:28.360Z,27.20
2018-06-11T16:34:05.941Z,27.40
2018-06-11T16:36:43.257Z,27.20
2018-06-11T16:39:18.705Z,26.80
2018-06-11T16:41:56.269Z,26.50
2018-06-11T16:44:31.918Z,26.10
2018-06-11T16:47:07.573Z,25.90
2018-06-11T16:49:49.721Z,25.70
2018-06-11T16:52:24.942Z,25.50
2018-06-11T16:55:00.069Z,25.30
2018-06-11T16:57:38.307Z,25.20
2018-06-11T17:00:15.751Z,25.20
2018-06-11T17:02:50.800Z,25.20
2018-06-11T17:05:26.294Z,25.60
2018-06-11T17:08:01.754Z,26.10
2018-06-11T17:10:37.644Z,26.10
2018-06-11T17:13:16.061Z,25.70
2018-06-11T17:15:52.764Z,25.80
2018-06-11T17:21:03.837Z,25.60
2018-06-11T17:23:46.782Z,25.50
2018-06-11T17:26:33.563Z,25.40
2018-06-11T17:29:12.833Z,25.30
2018-06-11T17:31:49.648Z,25.20
2018-06-11T17:34:24.279Z,25.10
2018-06-11T17:37:05.093Z,24.80
2018-06-11T17:39:41.765Z,25.00
2018-06-11T17:42:20.697Z,25.20
2018-06-11T17:44:58.828Z,24.90
2018-06-11T17:47:34.657Z,24.70
2018-06-11T17:50:10.466Z,24.40
2018-06-11T17:55:26.881Z,24.20
2018-06-11T17:58:01.258Z,24.30
2018-06-11T18:00:35.877Z,24.60
2018-06-11T18:03:10.862Z,24.60
2018-06-11T18:05:46.340Z,24.20
2018-06-11T18:08:20.853Z,23.90
2018-06-11T18:10:55.066Z,23.50
2018-06-11T18:13:30.105Z,23.10
2018-06-11T18:16:10.507Z,23.00
2018-06-11T18:18:47.515Z,22.90
2018-06-11T18:21:22.394Z,22.70
2018-06-11T18:23:57.244Z,22.50
2018-06-11T18:26:33.796Z,22.40
2018-06-11T18:29:09.072Z,22.20
2018-06-11T18:31:44.419Z,22.00
2018-06-11T18:34:19.743Z,21.90
2018-06-11T18:39:30.600Z,21.90
2018-06-11T18:42:10.950Z,22.00
2018-06-11T18:44:45.535Z,22.00
2018-06-11T18:47:20.325Z,21.90
2018-06-11T18:49:54.938Z,21.70
2018-06-11T18:52:32.345Z,21.60
2018-06-11T18:55:09.712Z,21.50
2018-06-11T18:57:45.282Z,21.40
2018-06-11T19:00:30.394Z,21.30
2018-06-11T19:03:04.812Z,21.20
2018-06-11T19:05:39.496Z,21.10
2018-06-11T19:08:14.425Z,21.00
2018-06-11T19:10:49.472Z,20.90
2018-06-11T19:13:24.776Z,20.80
2018-06-11T19:15:59.775Z,20.70
2018-06-11T19:18:34.376Z,20.50
2018-06-11T19:23:46.282Z,20.20
2018-06-11T19:26:24.875Z,20.10
2018-06-11T19:28:59.395Z,20.00
2018-06-11T19:31:34.563Z,19.90
2018-06-11T19:34:11.770Z,19.80
2018-06-11T19:37:01.712Z,19.70
2018-06-11T19:39:36.471Z,19.70
2018-06-11T19:42:12.572Z,19.60
2018-06-11T19:44:49.438Z,19.50
2018-06-11T19:47:24.090Z,19.50
2018-06-11T19:49:59.251Z,19.40
2018-06-11T19:52:46.015Z,19.40
2018-06-11T19:55:21.598Z,19.30
2018-06-11T19:57:56.147Z,19.20
2018-06-11T20:00:30.562Z,19.10
2018-06-11T20:03:05.946Z,19.10
2018-06-11T20:05:42.321Z,19.00
2018-06-11T20:08:27.143Z,19.00
2018-06-11T20:11:04.261Z,18.90
2018-06-11T20:13:39.950Z,18.80
2018-06-11T20:16:16.368Z,18.70
2018-06-11T20:18:56.694Z,18.60
2018-06-11T20:21:34.380Z,18.60
2018-06-11T20:27:06.417Z,18.50
2018-06-11T20:29:41.991Z,18.40
2018-06-11T20:32:16.558Z,18.40
2018-06-11T20:34:53.276Z,18.30
2018-06-11T20:37:28.094Z,18.20
2018-06-11T20:40:07.786Z,18.20
2018-06-11T20:42:42.460Z,18.10
2018-06-11T20:45:20.256Z,18.00
2018-06-11T20:48:05.006Z,17.90
2018-06-11T20:50:39.810Z,17.90
2018-06-11T20:53:14.615Z,17.80
2018-06-11T20:55:50.858Z,17.80
2018-06-11T20:58:25.553Z,17.70
2018-06-11T21:01:02.236Z,17.70
2018-06-11T21:03:47.278Z,17.60
2018-06-11T21:06:22.989Z,17.50
2018-06-11T21:08:57.317Z,17.50
2018-06-11T21:14:19.273Z,17.30
2018-06-11T21:16:59.345Z,17.20
2018-06-11T21:19:34.539Z,17.20
2018-06-11T21:25:06.736Z,17.00
2018-06-11T21:27:42.084Z,16.90
2018-06-11T21:30:17.790Z,16.80
2018-06-11T21:32:52.590Z,16.80
2018-06-11T21:35:27.673Z,16.60
2018-06-11T21:38:02.021Z,16.50
2018-06-11T21:40:37.380Z,16.50
2018-06-11T21:43:11.753Z,16.40
2018-06-11T21:45:47.786Z,16.30
2018-06-11T21:48:22.480Z,16.20
2018-06-11T21:50:58.689Z,16.10
2018-06-11T21:53:37.981Z,16.10
2018-06-11T21:56:12.389Z,16.00
2018-06-11T21:58:46.711Z,15.90
2018-06-11T22:01:23.017Z,15.80
2018-06-11T22:03:58.193Z,15.70
2018-06-11T22:06:32.396Z,15.60
2018-06-11T22:09:08.377Z,15.50
2018-06-11T22:11:45.636Z,15.50
2018-06-11T22:14:25.675Z,15.40
2018-06-11T22:17:00.307Z,15.40
2018-06-11T22:19:35.084Z,15.30
2018-06-11T22:22:09.384Z,15.20
2018-06-11T22:24:44.208Z,15.10
2018-06-11T22:27:18.755Z,15.10
2018-06-11T22:29:53.207Z,15.00
2018-06-11T22:32:27.473Z,15.00
2018-06-11T22:35:02.519Z,14.90
2018-06-11T22:37:37.043Z,14.90
2018-06-11T22:40:11.354Z,14.90
2018-06-11T22:42:45.948Z,14.80
2018-06-11T22:45:20.498Z,14.80
2018-06-11T22:47:55.447Z,14.60
2018-06-11T22:50:30.789Z,14.60
2018-06-11T22:53:07.560Z,14.50
2018-06-11T22:55:42.130Z,14.50
2018-06-11T22:58:16.515Z,14.40
2018-06-11T23:00:53.317Z,14.40
2018-06-11T23:03:27.765Z,14.40
2018-06-11T23:06:02.221Z,14.30
2018-06-11T23:08:36.826Z,14.30
2018-06-11T23:11:11.448Z,14.20
2018-06-11T23:13:45.947Z,14.20
2018-06-11T23:16:20.388Z,14.10
2018-06-11T23:18:55.691Z,14.10
2018-06-11T23:21:30.156Z,14.00
2018-06-11T23:24:04.660Z,13.90
2018-06-11T23:26:39.204Z,13.90
2018-06-11T23:29:13.681Z,13.80
2018-06-11T23:31:48.124Z,13.80
2018-06-11T23:34:23.754Z,13.70
2018-06-11T23:36:59.441Z,13.70
2018-06-11T23:39:34.002Z,13.70
2018-06-11T23:42:08.494Z,13.60
2018-06-11T23:48:01.180Z,13.50
2018-06-11T23:50:36.652Z,13.40
